Terminal Aerodrome Forecast
Issued by NWS Pendleton, OR

Home | Current Version | Previous Version | Text Only | Print | Product List | Glossary On
Versions: 1 2 3 4 5 6 7 8 9 10 11 12 13 14 15
000
FTUS46 KPDT 201330 AAC
TAFPDT
TAF AMD
KPDT 201330Z 2014/2112 20010KT P6SM -RA OVC060
     FM201700 22012G20KT P6SM VCSH OVC050
     FM202100 25017G27KT P6SM BKN070
     FM210200 23010KT P6SM SCT070 BKN120
     FM210700 16006KT P6SM BKN070=

USA.gov is the U.S. government's official web portal to all federal, state and local government web resources and services.